Change the Weather History Date:

Wednesday, September 25, 2013

  Actual Average Record
Temperature  
Mean Temperature 52 °F -  
Max Temperature 57 °F 58 °F 82 °F (2007)
Min Temperature 47 °F 36 °F 32 °F (2005)
Degree Days  
Heating Degree Days 13    
Growing Degree Days 2 (Base 50)    
Moisture  
Dew Point 49 °F    
Average Humidity 91    
Maximum Humidity 100    
Minimum Humidity 70    
Precipitation  
Precipitation 0.02 in 0.12 in - ()
Sea Level Pressure  
Sea Level Pressure 29.79 in    
Wind  
Wind Speed 8 mph ()    
Max Wind Speed 16 mph    
Max Gust Speed 24 mph    
Visibility 7.6 miles    
Events Rain    
Averages and records for this station are not official NWS values.
T = Trace of Precipitation, MM = Missing Value Source: Averaged Metar Reports

Daily Weather History Graph

Daily Weather History Graph

Search for Another Location

Airport or City:

Trip Planner

Search our weather history database for the weather conditions in past years. The results will help you decide how hot, cold, wet, or windy it might be!

Date:

Astronomy

Sep. 25, 2013 Rise Set
Actual Time 7:17 AM ADT 7:17 PM ADT
Civil Twilight 6:47 AM ADT 7:47 PM ADT
Nautical Twilight 6:12 AM ADT 8:21 PM ADT
Astronomical Twilight 5:36 AM ADT 8:57 PM ADT
Moon 11:04 PM ADT (9/25) 1:36 PM ADT (9/25)
Length of Visible Light 12h 59m
Length of Day
12h 00m
Waning Gibbous, 64% of the Moon is Illuminated
Sep 25
Waning Gibbous
Sep 27
Last Quarter
Oct 4
New
Oct 11
First Quarter
Oct 18
Full

Hourly Weather History & Observations

Time (ADT) Temp. Dew Point Humidity Pressure Visibility Wind Dir Wind Speed Gust Speed Precip Events Conditions
12:00 AM 51.8 °F 50.0 °F 94% 29.74 in 9.0 mi NW 10.4 mph - N/A Rain Light Rain
12:14 AM 50.0 °F 50.0 °F 100% 29.75 in 6.0 mi NW 6.9 mph - N/A Rain Light Rain
12:15 AM 50.0 °F 50.0 °F 100% 29.75 in 4.0 mi NW 8.1 mph - N/A Rain Light Rain
12:16 AM 50.0 °F 50.0 °F 100% 29.75 in 3.0 mi NW 9.2 mph - N/A Rain Light Rain
12:18 AM 50.0 °F 50.0 °F 100% 29.75 in 2.5 mi NW 10.4 mph - N/A Rain Rain
12:20 AM 50.0 °F 50.0 °F 100% 29.75 in 1.8 mi NW 10.4 mph - N/A Rain Rain
12:28 AM 50.0 °F 50.0 °F 100% 29.75 in 1.5 mi NW 9.2 mph - N/A Rain Rain
12:31 AM 50.0 °F 50.0 °F 100% 29.75 in 1.2 mi NW 8.1 mph - N/A Rain Light Rain
12:32 AM 50.0 °F 50.0 °F 100% 29.75 in 1.2 mi NNW 8.1 mph - N/A Rain Light Rain
12:47 AM 50.0 °F 50.0 °F 100% 29.75 in 2.0 mi NNW 5.8 mph - N/A Rain Light Rain
12:52 AM 50.0 °F 50.0 °F 100% 29.75 in 3.0 mi NNW 5.8 mph - N/A Rain Light Rain
12:56 AM 50.0 °F 50.0 °F 100% 29.75 in 6.0 mi NNW 6.9 mph - N/A Rain Light Rain
1:00 AM 50.0 °F 50.0 °F 100% 29.75 in 7.0 mi NNW 6.9 mph - N/A Rain Light Rain
1:14 AM 50.0 °F 50.0 °F 100% 29.75 in 5.0 mi NNW 6.9 mph - N/A Rain Light Rain
1:38 AM 50.0 °F 50.0 °F 100% 29.75 in 2.5 mi NNW 9.2 mph - N/A Rain Light Rain
1:46 AM 50.0 °F 50.0 °F 100% 29.75 in 3.0 mi NNW 8.1 mph - N/A Rain Light Rain
1:49 AM 50.0 °F 50.0 °F 100% 29.75 in 6.0 mi NNW 9.2 mph - N/A Rain Light Rain
1:54 AM 50.0 °F 50.0 °F 100% 29.75 in 9.0 mi NNW 8.1 mph - N/A   Overcast
2:00 AM 50.0 °F 50.0 °F 100% 29.76 in 9.0 mi NNW 9.2 mph - N/A   Overcast
2:09 AM 50.0 °F 48.2 °F 94% 29.76 in 5.0 mi NNW 9.2 mph - N/A   Overcast
2:12 AM 50.0 °F 48.2 °F 94% 29.76 in 4.0 mi NNW 9.2 mph - N/A Rain Light Rain
2:20 AM 50.0 °F 48.2 °F 94% 29.76 in 6.0 mi NNW 10.4 mph - N/A Rain Light Rain
2:28 AM 50.0 °F 48.2 °F 94% 29.76 in 5.0 mi NNW 11.5 mph - N/A Rain Light Rain
2:47 AM 50.0 °F 48.2 °F 94% 29.76 in 5.0 mi NNW 10.4 mph - N/A   Overcast
2:50 AM 50.0 °F 48.2 °F 94% 29.76 in 6.0 mi NNW 10.4 mph - N/A   Overcast
2:55 AM 50.0 °F 48.2 °F 94% 29.76 in 9.0 mi NNW 8.1 mph - N/A   Overcast
2:56 AM 50.0 °F 48.2 °F 94% 29.76 in 9.0 mi NNW 9.2 mph - N/A   Overcast
2:57 AM 50.0 °F 48.2 °F 94% 29.76 in 9.0 mi NNW 8.1 mph - N/A   Overcast
3:00 AM 49 °F 48 °F 97% 29.76 in 10 mi NNW 8.1 mph - -   Clear
3:00 AM 50.0 °F 48.2 °F 94% 29.76 in 9.0 mi NNW 6.9 mph - N/A   Overcast
3:01 AM 50.0 °F 48.2 °F 94% 29.76 in 9.0 mi NNW 8.1 mph - N/A   Overcast
3:04 AM 50.0 °F 48.2 °F 94% 29.76 in 9.0 mi NNW 6.9 mph - N/A   Overcast
3:05 AM 50.0 °F 48.2 °F 94% 29.76 in 9.0 mi NNW 6.9 mph - N/A   Overcast
3:13 AM 50.0 °F 48.2 °F 94% 29.76 in 9.0 mi NNW 8.1 mph - N/A   Overcast
3:24 AM 50.0 °F 48.2 °F 94% 29.76 in 9.0 mi NW 6.9 mph - N/A   Overcast
3:31 AM 50.0 °F 48.2 °F 94% 29.76 in 9.0 mi NW 8.1 mph - N/A Rain Light Rain
3:43 AM 50.0 °F 48.2 °F 94% 29.76 in 9.0 mi NW 6.9 mph - N/A   Overcast
4:00 AM 50.0 °F 48.2 °F 94% 29.76 in 9.0 mi NW 5.8 mph - N/A   Overcast
4:22 AM 50.0 °F 48.2 °F 94% 29.76 in 9.0 mi NW 5.8 mph - N/A Rain Light Rain
4:35 AM 50.0 °F 48.2 °F 94% 29.77 in 9.0 mi NW 6.9 mph - N/A   Overcast
5:00 AM 50.0 °F 48.2 °F 94% 29.77 in 9.0 mi NW 8.1 mph - N/A   Overcast
5:24 AM 48.2 °F 46.4 °F 93% 29.77 in 9.0 mi NNW 6.9 mph - N/A   Overcast
5:48 AM 48.2 °F 48.2 °F 100% 29.78 in 9.0 mi NNW 5.8 mph - N/A   Overcast
6:00 AM 48.2 °F 48.2 °F 100% 29.78 in 9.0 mi NW 5.8 mph - N/A   Overcast
7:00 AM 48.2 °F 46.4 °F 93% 29.79 in 9.0 mi NW 9.2 mph - N/A   Overcast
8:00 AM 48.2 °F 46.4 °F 93% 29.81 in 9.0 mi NW 10.4 mph - N/A   Overcast
8:17 AM 48.2 °F 46.4 °F 93% 29.81 in 9.0 mi NNW 10.4 mph - N/A   Overcast
9:00 AM 48 °F 45 °F 86% 29.82 in 10 mi NNW 9.2 mph - -   Overcast
9:00 AM 48.2 °F 44.6 °F 87% 29.82 in 9.0 mi NW 10.4 mph - N/A   Overcast
10:00 AM 50.0 °F 46.4 °F 87% 29.82 in 9.0 mi NNW 10.4 mph - N/A   Overcast
10:20 AM 50.0 °F 46.4 °F 87% 29.83 in 9.0 mi NNW 10.4 mph - N/A   Overcast
11:00 AM 51.8 °F 46.4 °F 82% 29.82 in 9.0 mi NNW 11.5 mph - N/A   Overcast
11:08 AM 51.8 °F 46.4 °F 82% 29.82 in 9.0 mi NW 9.2 mph - N/A   Overcast
11:22 AM 51.8 °F 46.4 °F 82% 29.82 in 9.0 mi NNW 11.5 mph - N/A   Overcast
12:00 PM 53.6 °F 46.4 °F 77% 29.82 in 9.0 mi NNW 9.2 mph - N/A   Overcast
12:33 PM 55.4 °F 48.2 °F 77% 29.82 in 9.0 mi NNW 4.6 mph - N/A   Overcast
12:36 PM 55.4 °F 48.2 °F 77% 29.82 in 9.0 mi North 3.5 mph - N/A   Overcast
12:48 PM 53.6 °F 48.2 °F 82% 29.82 in 9.0 mi NNW 12.7 mph - N/A Rain Light Rain
1:00 PM 53.6 °F 50.0 °F 88% 29.82 in 9.0 mi NW 4.6 mph - N/A Rain Light Rain
1:05 PM 53.6 °F 50.0 °F 88% 29.82 in 9.0 mi NW 6.9 mph - N/A   Overcast
1:27 PM 53.6 °F 48.2 °F 82% 29.82 in 9.0 mi North 11.5 mph - N/A Rain Light Rain
1:41 PM 55.4 °F 50.0 °F 82% 29.82 in 9.0 mi North 6.9 mph - N/A   Overcast
2:00 PM 55.4 °F 48.2 °F 77% 29.82 in 9.0 mi NW 3.5 mph - N/A   Overcast
2:49 PM 57.2 °F 48.2 °F 72% 29.81 in 9.0 mi North 16.1 mph 21.9 mph N/A   Overcast
3:00 PM 55 °F 48 °F 70% 29.82 in 10 mi NNW 15.0 mph - -   Clear
3:00 PM 55.4 °F 48.2 °F 77% 29.82 in 9.0 mi NW 12.7 mph 24.2 mph N/A   Mostly Cloudy
4:00 PM 57.2 °F 48.2 °F 72% 29.83 in 9.0 mi North 11.5 mph - N/A   Overcast
4:08 PM 55.4 °F 50.0 °F 82% 29.83 in 9.0 mi NNW 15.0 mph - N/A   Overcast
4:13 PM 55.4 °F 48.2 °F 77% 29.83 in 9.0 mi North 15.0 mph 21.9 mph N/A   Overcast
5:00 PM 55.4 °F 50.0 °F 82% 29.83 in 9.0 mi NNW 6.9 mph - N/A   Overcast
6:00 PM 55.4 °F 50.0 °F 82% 29.85 in 9.0 mi NW 6.9 mph - N/A   Overcast
6:10 PM 53.6 °F 50.0 °F 88% 29.85 in 6.0 mi NNW 12.7 mph - N/A Rain Light Rain
6:12 PM 53.6 °F 50.0 °F 88% 29.85 in 4.0 mi NNW 8.1 mph - N/A Rain Light Rain
6:20 PM 53.6 °F 51.8 °F 94% 29.85 in 7.0 mi NW 6.9 mph - N/A Rain Light Rain
6:25 PM 53.6 °F 50.0 °F 88% 29.85 in 9.0 mi NW 4.6 mph - N/A   Overcast
7:00 PM 53.6 °F 50.0 °F 88% 29.86 in 9.0 mi NW 4.6 mph - N/A   Mostly Cloudy
8:00 PM 51.8 °F 50.0 °F 94% 29.86 in 9.0 mi NW 3.5 mph - N/A   Mostly Cloudy
9:00 PM 53 °F 49 °F 83% 29.87 in 10 mi NW 8.1 mph - -   Clear
9:00 PM 53.6 °F 50.0 °F 88% 29.87 in 9.0 mi NW 6.9 mph - N/A   Overcast
10:00 PM 51.8 °F 48.2 °F 88% 29.88 in 9.0 mi NW 8.1 mph - N/A   Overcast
11:00 PM 51.8 °F 48.2 °F 88% 29.88 in 9.0 mi NW 8.1 mph - N/A   Overcast